Pagrindinis puslapis
METAR-TAF:

METAR-TAF

Oro uostai :

Båtsfjord, Norvegija

platuma: 70-38N, ilguma: 029-44E, Aukštis: 10 m

Dabartinis oras

Ataskaita buvo paskelbta 2 valandos ir 6 minutes, ne 06:50 UTC
Vėjas 9 kt iš Pietvakarių
Temperatūra 10°C
Drėgmė 87%
Slėgis 1015 hPa
Matomumas 10 km arba daugiau
Su prošvaistėmis ne aukštis 2800 ft

METAR: ENBS 010650Z 23009KT 9999 BKN028 10/08 Q1015

Laikas: 10:56 (08:56 UTC)


TAF: trūkstamas

Orai ataskaitas ir orų prognozės (METAR, TAF).

turimą stotys yra geltonos ir raudonos taškus žemėlapyje.

Perkelti pele per norėdami pamatyti stoties vardą.

Tada spustelėkite, norėdami matyti oro stebėjimo ir prognozės.

Norėdami pakeisti žemėlapį: spustelėkite ant žalios mygtukų su juodo kryžiaus žemyn,; žalią mygtuką su brūkšneliu, jei norite nutolinti; arba žalių rodyklių gretimoms žemėlapius.


METAR-TAF: